Stratton Mountain, Vermont
Current Conditions -  °F | °C
As of 2:54 AM on Saturday 20 Dec 2014 (Local Time) from KDDH Reporting Station
Few Clouds Few Clouds  
Wind Chill: 20°   Ceiling: Unl
Heat Index: 20°   Visibility: 10mi
Dew Point: 15°   Wind: 3mph
Humidity: 81%   Direction: 260°W
Pressure: 30.19"   Gusts: NA
Location:  43.11°N, 72.91°W
Report Text: KDDH 200754Z AUTO 26003KT 10SM FEW019 M07/M09 A3019 RMK AO2 SLP234 T10671094
Loading
Personal Weather Stations






























Interactive Weather Map New forecast layout! Learn more

10-Day Weather Forecast

Advertisements
Track Severe Weather on mobile